LIRALIRP

Guest
Details From LIRA - CIAMPINO
To LIRP - PISA
Flight Number -
Tags decoded
Created
Modified
Stats Distance 182 nm / 337 km
Max Altitude 0 ft / 0 m
Waypoints 5
Social Downloads 5
Likes 0
Share VATSIM

Download

Looking for another format? Having issues loading an existing format? Contact us
Advertisement - Login to hide

Notes

Requested: LIRA GILIO UM729 NORNI LIRP

Route

LIRA GILIO UM729 NORNI LIRP

ID Type Via Altitude Latitude Longitude Leg Dist Tot Dist Heading (true) Name
O LIRA APT - 0 ft / 0 m 41.79923˚ 12.59492˚ - 0 nm - CIAMPINO
GILIO FIX - 0 ft / 0 m 42.36667˚ 10.92611˚ 81 nm 81 nm 295° / 294° -
ELB VOR UM729 (AWY-HI) 0 ft / 0 m 42.73069˚ 10.39572˚ 32 nm 113 nm 313° / 313° ELBA VORTAC
NORNI FIX UM729 (AWY-HI) 0 ft / 0 m 43.27889˚ 9.97972˚ 37 nm 151 nm 331° / 331° -
O LIRP APT - 0 ft / 0 m 43.68388˚ 10.39272˚ 30 nm 181 nm 36° / 37° PISA

Altitude Profile

Advertisement - Login to hide

Weather


0- 5 10 15 20 25 30 35+ Temperature / ° C

Clouds and Precipitation
Forecast for 2017-12-11 18:00 UTC. Updated 2 hours ago

Ground ~20,000 ft ~40,000 ft Winds

LIRA

Details ICAO LIRA (CIA)
Name CIAMPINO
Region Italy
Timezone Europe/Rome (UTC+1.0)
Stats Elevation 427 ft / 130 m (AMSL)
Location 41.799228° 12.594917°
Runways 1
Magnetic Variation 3.057° E

METAR

LIRA 111850Z 16018G31KT 9999 DZ BKN015 15/11 Q1008

Decode

TAF

TAF LIRA 111700Z 1118/1218 17015G25KT 8000 BKN020 BECMG 1206/1208 VRB06KT TEMPO 1212/1218 RA

Decode

Departure Runways

ID Width Length Bearing (true) Bearing (mag) Surface Threshold Offset Overrun Length
15 154 ft / 47 m 7,246 ft / 2,209 m 152.79° 149.73° Asphalt 0 ft / 0 m 0 ft / 0 m
33 154 ft / 47 m 7,246 ft / 2,209 m 332.80° 329.74° Asphalt 0 ft / 0 m 0 ft / 0 m

LIRP

Details ICAO LIRP (PSA)
Name PISA
Region Italy
Timezone Europe/Rome (UTC+1.0)
Stats Elevation 6 ft / 2 m (AMSL)
Location 43.683883° 10.392724°
Runways 2
Magnetic Variation 2.703° E

METAR

LIRP 111845Z 17014KT 9999 FEW020 SCT050 16/11 Q0998 TEMPO 5000 RA

Decode

TAF

TAF LIRP 111700Z 1118/1218 20015KT 9999 RA SCT015 BKN040 TEMPO 1118/1203 20015G30KT PROB40 TEMPO 1121/1206 5000 SHRA FEW010CB BKN025

Decode

Destination Runways

ID Width Length Bearing (true) Bearing (mag) Surface Threshold Offset Overrun Length
04L 141 ft / 43 m 9,158 ft / 2,791 m 36.70° 34.00° Asphalt 979 ft / 298 m 0 ft / 0 m
04R 148 ft / 45 m 9,819 ft / 2,993 m 36.72° 34.02° Asphalt 490 ft / 149 m 0 ft / 0 m
22L 148 ft / 45 m 9,819 ft / 2,993 m 216.73° 214.03° Asphalt 843 ft / 257 m 0 ft / 0 m
22R 141 ft / 43 m 9,158 ft / 2,791 m 216.72° 214.02° Asphalt 0 ft / 0 m 0 ft / 0 m

Approach Navaids

Runway Type Ident Frequency Range Bearing (true) Bearing (mag) Slope Elevation
04R Localiser IPI 109.70 MHz 18 nm / 33 km 36.76° 34.06° - 7 ft / 2 m (AMSL)
04R Glidescope IPI 109.70 MHz 10 nm / 19 km 36.72° 34.02° 3.00° 3 ft / 1 m (AMSL)

Popular Alternatives